Time;durP1;ratioP1;P1;durP2;ratioP2;P2;SDS_P1;SDS_P2;PMS_P1;PMS_P2;Temp;Humidity;BMP_temperature;BMP_pressure;BME280_temperature;BME280_humidity;BME280_pressure;Samples;Min_cycle;Max_cycle;Signal;HPM_P1;HPM_P2
2021/11/12 00:12:38;;;;;;;3.25;1.92;;;22.00;49.90;;;;;;5037812;28;20143;-58
2021/11/12 00:15:05;;;;;;;3.20;2.00;;;22.00;49.90;;;;;;5041168;28;20076;-50
2021/11/12 00:17:34;;;;;;;2.30;1.70;;;22.00;50.00;;;;;;5033728;28;20417;-56
2021/11/12 00:20:00;;;;;;;3.20;1.77;;;22.00;50.00;;;;;;5040424;28;20036;-58
2021/11/12 00:22:28;;;;;;;2.67;1.77;;;21.90;50.00;;;;;;5032973;28;20036;-59
2021/11/12 00:24:56;;;;;;;3.08;1.90;;;22.00;50.10;;;;;;5034619;28;20505;-58
2021/11/12 00:27:23;;;;;;;2.25;1.70;;;21.90;50.00;;;;;;5029338;28;20770;-58
2021/11/12 00:40:23;;;;;;;2.75;1.80;;;21.80;50.10;;;;;;5032951;28;20718;-57
2021/11/12 00:45:28;;;;;;;3.45;1.80;;;21.80;50.10;;;;;;5041230;28;20450;-55
2021/11/12 00:48:00;;;;;;;2.70;1.80;;;21.80;50.10;;;;;;5033396;28;20025;-58
2021/11/12 00:55:25;;;;;;;2.78;2.00;;;21.80;50.20;;;;;;5039369;28;20029;-59
2021/11/12 00:57:51;;;;;;;2.70;2.00;;;21.80;50.20;;;;;;5034630;28;20021;-56
2021/11/12 01:00:19;;;;;;;3.65;2.20;;;21.70;50.20;;;;;;5031844;28;20026;-58
2021/11/12 01:02:45;;;;;;;2.20;1.77;;;21.70;50.20;;;;;;5034429;28;20029;-59
2021/11/12 01:05:11;;;;;;;2.38;1.75;;;21.70;50.20;;;;;;5043080;28;20043;-56
2021/11/12 01:07:38;;;;;;;2.42;1.80;;;21.70;50.20;;;;;;5032662;28;20465;-58
2021/11/12 01:10:06;;;;;;;2.85;1.83;;;21.70;50.20;;;;;;5037077;28;20036;-58
2021/11/12 01:12:33;;;;;;;2.53;1.60;;;21.70;50.20;;;;;;5036600;28;20493;-58
2021/11/12 01:14:58;;;;;;;3.22;1.83;;;21.70;50.20;;;;;;5038770;28;20116;-57
2021/11/12 01:17:24;;;;;;;2.60;1.80;;;21.60;50.20;;;;;;5033822;28;20352;-57
2021/11/12 01:19:50;;;;;;;2.40;1.70;;;21.60;50.20;;;;;;5034635;28;20090;-58
2021/11/12 01:22:16;;;;;;;2.53;1.70;;;21.60;50.30;;;;;;5030243;28;20478;-57
2021/11/12 01:24:43;;;;;;;2.42;1.60;;;21.60;50.30;;;;;;5044569;28;20078;-58
2021/11/12 01:27:09;;;;;;;2.60;1.67;;;21.60;50.30;;;;;;5028273;28;20052;-55
2021/11/12 01:29:35;;;;;;;2.50;1.70;;;21.60;50.30;;;;;;5039018;28;20036;-57
2021/11/12 01:32:21;;;;;;;2.45;1.80;;;21.60;50.30;;;;;;5034596;28;20041;-56
2021/11/12 01:34:51;;;;;;;2.22;1.60;;;21.60;50.30;;;;;;5033693;28;20049;-58
2021/11/12 01:37:20;;;;;;;2.53;1.50;;;21.50;50.30;;;;;;5031211;28;20159;-56
2021/11/12 01:39:52;;;;;;;3.60;1.90;;;21.50;50.30;;;;;;5039364;28;20033;-59
2021/11/12 01:42:18;;;;;;;2.28;1.70;;;21.50;50.40;;;;;;5037288;28;20170;-58
2021/11/12 01:44:51;;;;;;;2.90;1.70;;;21.50;50.40;;;;;;5036981;28;20112;-59
2021/11/12 01:50:07;;;;;;;2.45;1.60;;;21.50;50.40;;;;;;5034855;28;20462;-58
2021/11/12 01:52:38;;;;;;;2.53;1.60;;;21.50;50.40;;;;;;5041195;28;20029;-58
2021/11/12 01:55:14;;;;;;;2.78;1.73;;;21.40;50.40;;;;;;5038003;28;20039;-57
2021/11/12 01:57:53;;;;;;;1.98;1.60;;;21.40;50.40;;;;;;5038516;28;20025;-59
2021/11/12 02:00:22;;;;;;;2.40;1.65;;;21.40;50.40;;;;;;5039688;28;20033;-59
2021/11/12 02:02:49;;;;;;;2.58;1.48;;;21.40;50.40;;;;;;5035543;28;20032;-58
2021/11/12 02:05:16;;;;;;;2.63;1.70;;;21.40;50.40;;;;;;5035755;28;20079;-58
2021/11/12 02:07:42;;;;;;;2.55;1.67;;;21.40;50.50;;;;;;5034588;28;20065;-59
2021/11/12 02:10:14;;;;;;;2.60;1.63;;;21.40;50.50;;;;;;5042281;28;20115;-58
2021/11/12 02:15:26;;;;;;;2.72;1.70;;;21.30;50.50;;;;;;5041096;28;20028;-59
2021/11/12 02:18:02;;;;;;;2.38;1.75;;;21.30;50.50;;;;;;5030051;28;20072;-55
2021/11/12 02:20:50;;;;;;;2.00;1.58;;;21.30;50.50;;;;;;5030122;28;20095;-58
2021/11/12 02:23:14;;;;;;;2.17;1.52;;;21.30;50.50;;;;;;5038219;28;20676;-56
2021/11/12 02:25:44;;;;;;;2.50;1.50;;;21.30;50.60;;;;;;5033145;28;20037;-58
2021/11/12 02:28:13;;;;;;;2.10;1.50;;;21.30;50.60;;;;;;5041079;28;20025;-56
2021/11/12 02:30:41;;;;;;;2.20;1.60;;;21.30;50.60;;;;;;5035889;28;20132;-56
2021/11/12 02:33:15;;;;;;;2.72;1.50;;;21.30;50.60;;;;;;5030977;28;20029;-59
2021/11/12 02:35:57;;;;;;;2.00;1.40;;;21.20;50.60;;;;;;5036785;28;20063;-58
2021/11/12 02:38:23;;;;;;;2.10;1.60;;;21.20;50.60;;;;;;5037080;28;20036;-57
2021/11/12 02:40:50;;;;;;;2.00;1.50;;;21.20;50.60;;;;;;5033102;28;20486;-59
2021/11/12 02:43:17;;;;;;;2.08;1.60;;;21.30;50.70;;;;;;5032786;28;20533;-58
2021/11/12 02:45:43;;;;;;;2.47;1.60;;;21.20;50.60;;;;;;5039965;28;20060;-58
2021/11/12 02:48:09;;;;;;;1.80;1.40;;;21.20;50.60;;;;;;5038654;28;20040;-59
2021/11/12 02:50:35;;;;;;;2.10;1.70;;;21.20;50.60;;;;;;5035486;28;20059;-57
2021/11/12 02:53:04;;;;;;;1.85;1.35;;;21.20;50.60;;;;;;5032727;28;20029;-57
2021/11/12 02:55:31;;;;;;;2.70;1.80;;;21.20;50.60;;;;;;5033146;28;20463;-56
2021/11/12 02:57:58;;;;;;;2.40;1.40;;;21.20;50.70;;;;;;5026844;28;20033;-57
2021/11/12 03:00:25;;;;;;;1.80;1.40;;;21.20;50.60;;;;;;5036691;28;20030;-59
2021/11/12 03:02:51;;;;;;;2.05;1.55;;;21.10;50.70;;;;;;5039670;28;20105;-59
2021/11/12 03:05:16;;;;;;;1.90;1.60;;;21.10;50.60;;;;;;5036568;28;20069;-58
2021/11/12 03:07:42;;;;;;;1.77;1.40;;;21.10;50.60;;;;;;5031767;28;20056;-58
2021/11/12 03:10:09;;;;;;;2.22;1.60;;;21.10;50.60;;;;;;5030544;28;20038;-54
2021/11/12 03:12:34;;;;;;;2.15;1.70;;;21.10;50.70;;;;;;5033226;28;20037;-58
2021/11/12 03:15:00;;;;;;;2.00;1.60;;;21.10;50.70;;;;;;5031911;28;20041;-59
2021/11/12 03:17:26;;;;;;;1.70;1.30;;;21.10;50.70;;;;;;5032397;28;20021;-59
2021/11/12 03:19:52;;;;;;;2.25;1.67;;;21.10;50.70;;;;;;5038247;28;20024;-56
2021/11/12 03:22:20;;;;;;;2.13;1.50;;;21.10;50.70;;;;;;5036739;28;20654;-58
2021/11/12 03:24:59;;;;;;;1.80;1.30;;;21.10;50.70;;;;;;5042938;28;20036;-50
2021/11/12 03:27:39;;;;;;;2.47;1.40;;;21.10;50.70;;;;;;5039590;28;20040;-56
2021/11/12 04:00:21;;;;;;;2.22;1.50;;;21.00;50.70;;;;;;5031777;28;20140;-58
2021/11/12 04:02:54;;;;;;;1.92;1.38;;;21.00;50.70;;;;;;5035843;28;20133;-58
2021/11/12 05:51:57;;;;;;;1.60;1.10;;;20.70;51.40;;;;;;5031927;28;20040;-57
2021/11/12 05:57:08;;;;;;;2.50;1.20;;;20.70;51.50;;;;;;5030722;28;20096;-57
2021/11/12 05:59:33;;;;;;;1.25;1.10;;;20.70;51.50;;;;;;5033107;28;20033;-54
2021/11/12 06:01:59;;;;;;;1.65;1.15;;;20.60;52.00;;;;;;5037953;28;20037;-55
2021/11/12 06:04:24;;;;;;;1.65;1.23;;;20.60;51.50;;;;;;5030491;28;20049;-57
2021/11/12 06:06:50;;;;;;;1.40;1.13;;;20.60;51.70;;;;;;5031386;28;20370;-58
2021/11/12 06:09:16;;;;;;;1.42;1.10;;;20.60;51.50;;;;;;5028790;28;20028;-59
2021/11/12 06:11:43;;;;;;;1.45;1.20;;;20.60;51.50;;;;;;5034526;28;20039;-55
2021/11/12 06:14:09;;;;;;;1.30;1.13;;;20.60;51.50;;;;;;5035158;28;20048;-54
2021/11/12 06:16:34;;;;;;;1.58;1.20;;;20.60;51.60;;;;;;5039324;28;20036;-55
2021/11/12 06:19:01;;;;;;;1.50;1.10;;;20.60;51.60;;;;;;5040329;28;20039;-59
2021/11/12 06:21:29;;;;;;;1.42;1.20;;;20.60;51.60;;;;;;5037409;28;20502;-58
2021/11/12 06:23:55;;;;;;;1.42;1.10;;;20.60;51.60;;;;;;5037433;28;20067;-58
2021/11/12 06:26:21;;;;;;;1.55;1.10;;;20.60;51.60;;;;;;5031921;28;20119;-58
2021/11/12 06:28:47;;;;;;;1.42;1.20;;;20.60;51.60;;;;;;5030890;28;20033;-57
2021/11/12 06:31:13;;;;;;;1.52;1.23;;;20.60;51.60;;;;;;5037709;28;20040;-57
2021/11/12 06:33:38;;;;;;;1.42;1.10;;;20.60;51.60;;;;;;5034358;28;20556;-55
2021/11/12 06:36:04;;;;;;;2.45;1.30;;;20.60;51.60;;;;;;5030888;28;20446;-59
2021/11/12 06:38:31;;;;;;;1.90;1.50;;;20.60;51.70;;;;;;5028339;28;20067;-59
2021/11/12 06:40:58;;;;;;;4.03;1.75;;;20.70;52.70;;;;;;5037219;28;20025;-59
2021/11/12 06:43:42;;;;;;;2.10;1.50;;;20.90;53.10;;;;;;5031065;28;20028;-56
2021/11/12 06:51:38;;;;;;;1.92;1.30;;;21.60;52.50;;;;;;5030954;28;20099;-58
2021/11/12 06:54:03;;;;;;;1.95;1.40;;;21.70;52.50;;;;;;5036316;28;20041;-55
2021/11/12 06:56:29;;;;;;;1.80;1.30;;;21.90;52.30;;;;;;5032412;28;20025;-57
2021/11/12 06:58:54;;;;;;;2.10;1.27;;;22.00;52.20;;;;;;5030985;28;20035;-58
2021/11/12 07:01:20;;;;;;;2.50;1.40;;;22.20;52.10;;;;;;5034121;28;20138;-58
2021/11/12 07:03:46;;;;;;;1.13;1.00;;;22.30;52.00;;;;;;5034315;28;20044;-57
2021/11/12 07:06:12;;;;;;;1.05;0.85;;;22.40;52.10;;;;;;5035901;28;20049;-55
2021/11/12 07:08:38;;;;;;;1.00;0.90;;;22.40;51.80;;;;;;5035144;28;20033;-58
2021/11/12 07:11:04;;;;;;;1.20;0.88;;;22.30;51.90;;;;;;5036173;28;20032;-57
2021/11/12 07:13:29;;;;;;;1.00;0.80;;;22.20;52.00;;;;;;5034209;28;20053;-57
2021/11/12 07:15:59;;;;;;;1.42;1.00;;;22.20;52.10;;;;;;5036593;28;20033;-58
2021/11/12 07:18:26;;;;;;;;;;;22.10;52.10;;;;;;5036160;28;20032;-53
2021/11/12 07:20:53;;;;;;;1.63;1.20;;;22.20;52.20;;;;;;5040820;28;19924;-57
2021/11/12 07:23:19;;;;;;;1.80;1.20;;;22.30;52.70;;;;;;5047256;28;20426;-58
2021/11/12 07:25:46;;;;;;;2.47;1.40;;;22.60;52.30;;;;;;5032674;28;20029;-57
2021/11/12 07:28:13;;;;;;;1.67;1.27;;;22.90;51.90;;;;;;5045076;28;20037;-57
2021/11/12 07:30:41;;;;;;;2.13;1.10;;;23.10;51.60;;;;;;5039055;28;20385;-53
2021/11/12 07:33:08;;;;;;;1.00;0.90;;;23.30;51.30;;;;;;5038333;28;20100;-58
2021/11/12 07:35:39;;;;;;;1.60;1.20;;;23.50;51.00;;;;;;5031959;28;20040;-58
2021/11/12 07:38:14;;;;;;;1.20;1.00;;;23.70;50.60;;;;;;5040250;28;20038;-58
2021/11/12 07:44:07;;;;;;;1.08;0.90;;;24.10;50.20;;;;;;5044250;28;20130;-56
2021/11/12 07:48:32;;;;;;;2.13;0.90;;;24.40;49.80;;;;;;5035591;28;20029;-57
2021/11/12 07:50:58;;;;;;;0.82;0.80;;;24.60;49.70;;;;;;5038119;28;20060;-58
2021/11/12 07:53:25;;;;;;;0.80;0.68;;;24.40;49.70;;;;;;5034289;28;20025;-58
2021/11/12 07:55:53;;;;;;;0.93;0.73;;;24.30;49.90;;;;;;5038999;28;20036;-56
2021/11/12 07:58:19;;;;;;;0.77;0.70;;;24.10;50.20;;;;;;5035637;28;20068;-58
2021/11/12 08:00:45;;;;;;;1.15;0.80;;;24.00;50.30;;;;;;5035681;28;20104;-56
2021/11/12 08:03:11;;;;;;;0.80;0.80;;;23.90;50.50;;;;;;5033982;28;20449;-57
2021/11/12 08:05:39;;;;;;;1.08;0.90;;;23.90;50.50;;;;;;5032541;28;20021;-54
2021/11/12 08:08:09;;;;;;;0.70;0.70;;;23.90;50.70;;;;;;5038694;28;20048;-56
2021/11/12 08:10:40;;;;;;;;;;;23.90;50.70;;;;;;5042216;28;20048;-58
2021/11/12 08:13:16;;;;;;;1.10;0.80;;;23.80;50.50;;;;;;5040745;28;19924;-58
2021/11/12 08:20:53;;;;;;;2.33;1.00;;;23.90;51.60;;;;;;5033450;28;20056;-58
2021/11/12 08:23:29;;;;;;;0.90;0.70;;;23.90;51.50;;;;;;5047441;28;20559;-58
2021/11/12 08:26:12;;;;;;;1.02;0.77;;;23.90;51.40;;;;;;5038582;28;20033;-56
2021/11/12 08:40:03;;;;;;;0.70;0.70;;;23.90;51.10;;;;;;5033643;28;20532;-56
2021/11/12 08:42:21;;;;;;;1.00;0.77;;;23.90;51.40;;;;;;5038464;28;20040;-58
2021/11/12 08:44:53;;;;;;;1.20;0.90;;;24.00;51.60;;;;;;5031458;28;20029;-56
2021/11/12 08:47:24;;;;;;;0.93;0.80;;;24.00;51.80;;;;;;5033918;28;20117;-55
2021/11/12 08:49:50;;;;;;;1.10;0.90;;;24.00;51.50;;;;;;5036959;28;20098;-58
2021/11/12 08:52:17;;;;;;;0.88;0.70;;;24.00;51.20;;;;;;5036636;28;20041;-56
2021/11/12 08:54:46;;;;;;;1.48;0.95;;;24.00;51.30;;;;;;5032969;28;20022;-56
2021/11/12 08:57:14;;;;;;;1.10;0.70;;;24.00;51.30;;;;;;5032171;28;20043;-57
2021/11/12 08:59:45;;;;;;;0.70;0.70;;;24.00;51.30;;;;;;5032315;28;20413;-55
2021/11/12 09:02:14;;;;;;;1.60;0.80;;;24.00;51.40;;;;;;5043458;28;20119;-57
2021/11/12 09:04:40;;;;;;;;;;;24.00;51.40;;;;;;5032734;28;20029;-54
2021/11/12 09:07:08;;;;;;;0.80;0.80;;;24.00;51.30;;;;;;5027073;28;19954;-57
2021/11/12 09:09:34;;;;;;;0.60;0.60;;;24.00;51.40;;;;;;5031536;28;20100;-51
2021/11/12 09:12:00;;;;;;;0.80;0.70;;;24.00;51.40;;;;;;5035378;28;20121;-57
2021/11/12 09:14:28;;;;;;;1.08;0.70;;;24.00;51.50;;;;;;5037119;28;20072;-58
2021/11/12 09:16:54;;;;;;;0.98;0.82;;;24.10;51.60;;;;;;5030514;28;20034;-57
2021/11/12 09:19:19;;;;;;;0.90;0.80;;;24.10;51.50;;;;;;5030911;28;20044;-56
2021/11/12 09:21:47;;;;;;;1.10;0.80;;;24.00;51.50;;;;;;5032370;28;20037;-55
2021/11/12 09:24:13;;;;;;;1.10;0.70;;;24.00;51.60;;;;;;5027479;28;20037;-58
2021/11/12 09:26:40;;;;;;;0.85;0.70;;;24.10;51.70;;;;;;5033989;28;20029;-57
2021/11/12 09:29:11;;;;;;;1.15;0.70;;;24.10;51.80;;;;;;5030200;28;20030;-53
2021/11/12 09:31:40;;;;;;;0.93;0.80;;;24.10;51.60;;;;;;5038490;28;20184;-57
2021/11/12 09:34:06;;;;;;;;;;;24.10;51.60;;;;;;5030826;28;20017;-56
2021/11/12 09:36:33;;;;;;;1.45;1.10;;;24.10;51.00;;;;;;5036695;28;19924;-56
2021/11/12 09:38:58;;;;;;;1.42;1.13;;;24.10;48.60;;;;;;5030126;28;20820;-58
2021/11/12 09:41:24;;;;;;;1.73;1.17;;;24.00;47.40;;;;;;5027924;28;20025;-58
2021/11/12 09:43:50;;;;;;;1.77;1.20;;;24.00;46.90;;;;;;5032424;28;20028;-55
2021/11/12 09:46:16;;;;;;;1.23;1.13;;;24.00;47.00;;;;;;5031611;28;20044;-56
2021/11/12 09:48:43;;;;;;;2.25;1.30;;;23.90;47.00;;;;;;5039993;28;20384;-58
2021/11/12 09:51:11;;;;;;;1.52;1.10;;;23.90;47.00;;;;;;5032436;28;20044;-57
2021/11/12 09:53:37;;;;;;;1.83;1.20;;;23.90;46.80;;;;;;5035067;28;20044;-59
2021/11/12 09:56:03;;;;;;;1.38;1.10;;;23.90;46.80;;;;;;5031933;28;20702;-57
2021/11/12 09:58:32;;;;;;;1.67;1.30;;;23.80;47.00;;;;;;5030651;28;20120;-56
2021/11/12 10:00:59;;;;;;;1.45;1.15;;;23.80;46.90;;;;;;5029134;28;20397;-58
2021/11/12 10:03:43;;;;;;;1.83;1.10;;;23.70;47.10;;;;;;5034632;28;20022;-52
2021/11/12 10:06:20;;;;;;;1.35;1.10;;;23.70;47.10;;;;;;5031358;28;20060;-57
2021/11/12 10:08:46;;;;;;;1.95;1.20;;;23.70;47.20;;;;;;5030571;28;20133;-58
2021/11/12 10:11:25;;;;;;;1.45;1.10;;;23.70;47.10;;;;;;5033309;28;20166;-58
2021/11/12 10:13:59;;;;;;;;;;;23.70;47.30;;;;;;5034429;28;20110;-58
2021/11/12 10:16:36;;;;;;;1.48;1.10;;;23.60;47.50;;;;;;5032616;28;20288;-56
2021/11/12 10:19:18;;;;;;;1.73;1.25;;;23.60;47.40;;;;;;5031803;28;20428;-58
2021/11/12 10:21:50;;;;;;;1.70;1.20;;;23.60;47.60;;;;;;5031606;28;20075;-56
2021/11/12 10:24:28;;;;;;;1.30;1.00;;;23.60;47.40;;;;;;5024065;28;20030;-58
2021/11/12 10:27:09;;;;;;;2.13;1.20;;;23.50;47.60;;;;;;5026042;28;22010;-58
2021/11/12 10:29:43;;;;;;;1.85;1.20;;;23.50;47.70;;;;;;5028423;28;20284;-57
2021/11/12 10:32:11;;;;;;;2.42;1.20;;;23.50;48.20;;;;;;5026579;28;20548;-58
2021/11/12 10:34:40;;;;;;;1.75;1.20;;;23.50;47.60;;;;;;5031307;28;20043;-57
2021/11/12 10:37:10;;;;;;;1.20;1.10;;;23.50;47.60;;;;;;5026529;28;20025;-58
2021/11/12 10:39:56;;;;;;;1.80;1.20;;;23.50;47.60;;;;;;5038839;28;20033;-56
2021/11/12 10:42:25;;;;;;;1.75;1.00;;;23.50;47.70;;;;;;5029576;28;20068;-57
2021/11/12 10:44:57;;;;;;;1.67;1.20;;;23.50;47.70;;;;;;5030985;28;20044;-57
2021/11/12 10:47:24;;;;;;;2.65;1.20;;;23.40;47.90;;;;;;5034905;28;20032;-57
2021/11/12 10:50:03;;;;;;;1.67;1.20;;;23.40;48.00;;;;;;5037040;28;20025;-58
2021/11/12 10:52:31;;;;;;;1.60;1.07;;;23.40;47.90;;;;;;5027531;28;20026;-57
2021/11/12 10:55:21;;;;;;;1.38;1.13;;;23.40;48.00;;;;;;5031217;28;20815;-57
2021/11/12 10:57:55;;;;;;;1.48;1.17;;;23.30;47.80;;;;;;5030914;28;20130;-58
2021/11/12 11:00:24;;;;;;;1.88;1.23;;;23.40;47.80;;;;;;5026704;28;20260;-59
2021/11/12 11:03:05;;;;;;;1.70;1.30;;;23.30;47.70;;;;;;5033139;28;20024;-54
2021/11/12 11:05:44;;;;;;;2.38;1.52;;;23.20;47.70;;;;;;5032470;28;20045;-57
2021/11/12 11:08:50;;;;;;;1.92;1.50;;;23.20;47.60;;;;;;5028857;28;20036;-55
2021/11/12 11:11:16;;;;;;;1.60;1.13;;;23.20;47.70;;;;;;5023352;28;20528;-58
2021/11/12 11:13:46;;;;;;;1.50;1.20;;;23.20;47.80;;;;;;5030141;28;20028;-58
2021/11/12 11:16:20;;;;;;;2.42;1.50;;;23.20;47.80;;;;;;5033164;28;20556;-57
2021/11/12 11:19:07;;;;;;;1.85;1.13;;;23.20;47.80;;;;;;5037067;28;20524;-58
2021/11/12 11:21:33;;;;;;;2.55;1.60;;;23.10;47.80;;;;;;5041696;28;20033;-56
2021/11/12 11:24:00;;;;;;;3.03;1.40;;;23.10;47.90;;;;;;5032871;28;20025;-58
2021/11/12 11:26:47;;;;;;;1.98;1.50;;;23.00;47.90;;;;;;5035725;28;20110;-58
2021/11/12 11:29:20;;;;;;;2.53;1.38;;;23.00;48.00;;;;;;5031064;28;20074;-58
2021/11/12 11:31:47;;;;;;;2.13;1.33;;;22.90;47.90;;;;;;5034527;28;20134;-56
2021/11/12 11:34:13;;;;;;;2.13;1.48;;;22.90;48.10;;;;;;5030293;28;20396;-56
2021/11/12 11:36:46;;;;;;;1.92;1.38;;;22.90;48.10;;;;;;5026182;28;20025;-60
2021/11/12 11:39:14;;;;;;;2.03;1.30;;;22.80;48.20;;;;;;5031473;28;20052;-61
2021/11/12 11:41:44;;;;;;;1.85;1.40;;;22.80;48.20;;;;;;5027159;28;20382;-58
2021/11/12 11:44:20;;;;;;;2.70;1.33;;;22.80;48.30;;;;;;5032410;28;20029;-58
2021/11/12 11:46:49;;;;;;;3.45;1.50;;;22.80;48.30;;;;;;5033230;28;20579;-61
2021/11/12 11:49:18;;;;;;;2.22;1.27;;;22.70;48.30;;;;;;5038577;28;20029;-59
2021/11/12 11:51:54;;;;;;;1.73;1.20;;;22.70;48.40;;;;;;5031330;28;20120;-57
2021/11/12 11:54:21;;;;;;;2.50;1.60;;;22.60;48.40;;;;;;5037103;28;20108;-58
2021/11/12 11:56:51;;;;;;;2.80;1.70;;;22.60;48.50;;;;;;5032983;28;20025;-60
2021/11/12 11:59:25;;;;;;;1.85;1.40;;;22.60;48.60;;;;;;5031515;28;20033;-59
2021/11/12 12:01:59;;;;;;;9.02;2.00;;;22.50;48.60;;;;;;5032859;28;20105;-61
2021/11/12 12:04:37;;;;;;;2.22;1.52;;;22.50;48.70;;;;;;5034731;28;20030;-60
2021/11/12 12:07:02;;;;;;;2.70;1.48;;;22.50;48.80;;;;;;5032776;28;20022;-59
2021/11/12 12:09:53;;;;;;;2.85;1.52;;;22.50;48.90;;;;;;5028777;28;20148;-60
2021/11/12 12:12:31;;;;;;;3.00;1.38;;;22.40;48.90;;;;;;5032717;28;20108;-58
2021/11/12 12:15:12;;;;;;;2.55;1.50;;;22.40;49.00;;;;;;5030806;28;20034;-61
2021/11/12 12:17:49;;;;;;;3.25;1.48;;;22.40;49.20;;;;;;5032796;28;20779;-60
2021/11/12 12:20:35;;;;;;;3.30;1.60;;;22.40;49.30;;;;;;5033273;28;20419;-57
2021/11/12 13:22:39;;;;;;;3.22;1.90;;;22.00;50.70;;;;;;5028508;28;20029;-57
2021/11/12 13:25:07;;;;;;;4.45;1.80;;;22.00;50.70;;;;;;5035535;28;20068;-57
2021/11/12 13:27:33;;;;;;;3.47;1.83;;;21.90;50.70;;;;;;5032928;28;20040;-58
2021/11/12 13:29:59;;;;;;;2.90;2.00;;;21.90;50.80;;;;;;5030770;28;20037;-58
2021/11/12 13:32:24;;;;;;;2.45;1.80;;;21.90;50.90;;;;;;5023221;28;20045;-56
2021/11/12 13:34:50;;;;;;;2.65;1.73;;;21.90;50.90;;;;;;5028795;28;20053;-59
2021/11/12 13:37:21;;;;;;;3.38;1.90;;;21.90;51.00;;;;;;5026491;28;20047;-59
2021/11/12 13:40:04;;;;;;;3.38;2.20;;;21.90;51.00;;;;;;5027778;28;20064;-57
2021/11/12 13:42:41;;;;;;;3.30;1.90;;;21.80;51.00;;;;;;5028044;28;20051;-58
2021/11/12 13:45:19;;;;;;;3.47;1.60;;;21.90;51.10;;;;;;5026868;28;20033;-57
2021/11/12 13:47:46;;;;;;;2.58;1.67;;;21.80;51.10;;;;;;5024885;28;20021;-57
2021/11/12 13:50:13;;;;;;;2.50;1.70;;;21.80;51.10;;;;;;5031847;28;20066;-58
2021/11/12 13:52:42;;;;;;;3.47;2.00;;;21.80;51.10;;;;;;5031121;28;20151;-58
2021/11/12 13:55:16;;;;;;;2.67;1.83;;;21.80;51.20;;;;;;5028081;28;20590;-58
2021/11/12 13:57:58;;;;;;;3.58;2.00;;;21.80;51.30;;;;;;5031590;28;20036;-58
2021/11/12 14:00:27;;;;;;;3.10;1.90;;;21.80;51.30;;;;;;5028345;28;20037;-58
2021/11/12 14:03:06;;;;;;;3.03;1.75;;;21.80;51.30;;;;;;5031040;28;20041;-56
2021/11/12 14:05:33;;;;;;;;;;;21.70;51.30;;;;;;5033669;28;20510;-57
2021/11/12 14:08:09;;;;;;;3.38;1.90;;;21.70;51.40;;;;;;5033224;28;19955;-57
2021/11/12 14:10:44;;;;;;;3.40;2.10;;;21.70;51.40;;;;;;5028396;28;20029;-58
2021/11/12 14:13:12;;;;;;;3.53;2.20;;;21.70;51.40;;;;;;5026339;28;20028;-57
2021/11/12 14:16:29;;;;;;;3.77;2.43;;;21.70;51.60;;;;;;5029889;28;20033;-59
2021/11/12 14:27:32;;;;;;;3.88;2.42;;;22.00;51.20;;;;;;5030869;28;20040;-58
2021/11/12 14:49:02;;;;;;;3.40;2.60;;;22.80;50.10;;;;;;5030694;28;20093;-58
2021/11/12 14:51:45;;;;;;;4.10;2.50;;;22.80;49.90;;;;;;5030082;28;20898;-58
2021/11/12 14:54:13;;;;;;;4.45;2.40;;;22.80;49.70;;;;;;5029768;28;20036;-58
2021/11/12 14:56:47;;;;;;;5.00;2.63;;;22.80;49.80;;;;;;5024186;28;20041;-57
2021/11/12 14:59:17;;;;;;;3.33;2.17;;;22.80;50.00;;;;;;5030889;28;20186;-59
2021/11/12 15:01:43;;;;;;;3.88;2.42;;;22.70;50.00;;;;;;5031713;28;20512;-58
2021/11/12 15:04:09;;;;;;;4.03;2.60;;;22.70;50.10;;;;;;5032034;28;20021;-58
2021/11/12 15:06:35;;;;;;;3.65;2.55;;;22.70;50.10;;;;;;5029050;28;20641;-59
2021/11/12 15:09:24;;;;;;;4.15;2.50;;;22.60;50.10;;;;;;5029078;28;20941;-56
2021/11/12 15:11:51;;;;;;;4.40;2.50;;;22.60;50.10;;;;;;5028576;28;20017;-58
2021/11/12 15:14:25;;;;;;;3.25;2.33;;;22.60;50.20;;;;;;5030363;28;20065;-58
2021/11/12 15:16:51;;;;;;;4.55;2.72;;;22.60;50.70;;;;;;5028807;28;20195;-57
2021/11/12 15:19:18;;;;;;;4.10;2.78;;;22.60;50.30;;;;;;5033766;28;20136;-55
2021/11/12 15:27:02;;;;;;;3.92;2.58;;;22.50;50.40;;;;;;5031253;28;20872;-59
2021/11/12 15:29:40;;;;;;;4.22;2.75;;;22.50;50.40;;;;;;5019638;28;20041;-54
2021/11/12 15:32:27;;;;;;;3.80;2.58;;;22.50;50.40;;;;;;5033827;28;20560;-58
2021/11/12 15:34:57;;;;;;;3.15;2.50;;;22.50;50.50;;;;;;5035828;28;20401;-58
2021/11/12 15:44:46;;;;;;;4.18;2.60;;;22.40;50.60;;;;;;5028023;28;20044;-57
2021/11/12 15:49:41;;;;;;;3.72;2.50;;;22.40;50.70;;;;;;5034166;28;20021;-55
2021/11/12 15:52:14;;;;;;;4.20;2.70;;;22.40;50.70;;;;;;5029536;28;20913;-58
2021/11/12 15:54:59;;;;;;;3.42;2.50;;;22.40;50.70;;;;;;5033500;28;20454;-58
2021/11/12 16:00:16;;;;;;;3.78;2.65;;;22.40;50.70;;;;;;5030684;28;20123;-57
2021/11/12 16:08:26;;;;;;;5.07;3.20;;;22.30;50.70;;;;;;5027249;28;20136;-55
2021/11/12 16:13:46;;;;;;;4.65;2.58;;;22.30;50.80;;;;;;5028954;28;20131;-57
2021/11/12 16:26:23;;;;;;;3.63;2.73;;;22.20;50.90;;;;;;5033529;28;20619;-58
2021/11/12 16:31:16;;;;;;;3.45;2.60;;;22.20;51.00;;;;;;5030842;28;20143;-57
2021/11/12 16:33:43;;;;;;;4.60;2.95;;;22.20;51.10;;;;;;5031504;28;20021;-58
2021/11/12 16:36:09;;;;;;;4.07;2.85;;;22.20;51.10;;;;;;5035451;28;20150;-59
2021/11/12 16:38:36;;;;;;;4.30;2.92;;;22.10;51.10;;;;;;5031135;28;20029;-59
2021/11/12 16:41:16;;;;;;;4.93;2.92;;;22.10;51.10;;;;;;5029020;28;20527;-58
2021/11/12 16:46:29;;;;;;;4.47;2.60;;;22.10;51.20;;;;;;5028625;28;20038;-57
2021/11/12 16:49:12;;;;;;;4.30;3.17;;;22.10;51.40;;;;;;5028868;28;21070;-59
2021/11/12 16:56:56;;;;;;;3.70;2.85;;;22.10;51.30;;;;;;5031292;28;20037;-58
2021/11/12 17:02:06;;;;;;;4.80;2.95;;;22.10;51.40;;;;;;5023837;28;20037;-58
2021/11/12 17:04:38;;;;;;;4.07;2.70;;;22.20;51.40;;;;;;5029302;28;20033;-57
2021/11/12 17:07:12;;;;;;;5.00;2.72;;;22.30;51.40;;;;;;5026409;28;20043;-59
2021/11/12 17:18:16;;;;;;;3.72;2.65;;;22.30;51.20;;;;;;4990987;28;20038;-58
2021/11/12 17:47:58;;;;;;;5.05;2.85;;;22.50;51.40;;;;;;5025042;28;20063;-59
2021/11/12 17:50:36;;;;;;;5.22;2.97;;;22.50;51.30;;;;;;5026992;28;20164;-59
2021/11/12 18:04:14;;;;;;;4.03;2.58;;;22.60;51.10;;;;;;5023722;28;20044;-58
2021/11/12 18:06:54;;;;;;;4.35;2.85;;;22.60;51.00;;;;;;5030508;28;20041;-58
2021/11/12 21:48:08;;;;;;;3.50;2.20;;;22.90;51.00;;;;;;5032854;28;20025;-58
2021/11/12 21:50:36;;;;;;;3.58;2.28;;;22.90;50.90;;;;;;5035499;28;20428;-59
2021/11/12 21:53:04;;;;;;;6.28;2.40;;;22.90;50.90;;;;;;5031483;28;20029;-58
2021/11/12 21:55:29;;;;;;;3.70;2.10;;;22.90;50.80;;;;;;5035560;28;20025;-57
2021/11/12 21:57:55;;;;;;;3.97;2.20;;;22.90;50.80;;;;;;5031695;28;20087;-58
2021/11/12 22:00:21;;;;;;;3.80;2.40;;;22.90;50.70;;;;;;5030076;28;20047;-56
2021/11/12 22:02:47;;;;;;;3.85;2.28;;;22.90;50.80;;;;;;5029660;28;20100;-59
2021/11/12 22:05:13;;;;;;;4.78;2.42;;;22.90;50.70;;;;;;5036606;28;20028;-54
2021/11/12 22:07:38;;;;;;;6.07;2.38;;;23.00;50.80;;;;;;5029639;28;20029;-57
2021/11/12 22:10:06;;;;;;;4.70;2.35;;;23.00;50.70;;;;;;5032062;28;20032;-54
2021/11/12 22:12:31;;;;;;;3.72;2.38;;;22.90;50.60;;;;;;5030877;28;20033;-57
2021/11/12 22:14:57;;;;;;;3.75;2.30;;;22.90;50.60;;;;;;5033762;28;20090;-58
2021/11/12 22:17:24;;;;;;;3.28;2.00;;;22.90;50.60;;;;;;5031438;28;20075;-59
2021/11/12 22:19:50;;;;;;;2.65;2.00;;;22.90;50.60;;;;;;5032157;28;20148;-59
2021/11/12 22:22:16;;;;;;;3.55;2.25;;;22.90;50.60;;;;;;5030286;28;20037;-56
2021/11/12 22:24:42;;;;;;;3.72;2.53;;;22.90;50.50;;;;;;5032588;28;20477;-58
2021/11/12 22:27:08;;;;;;;3.53;2.40;;;22.90;50.60;;;;;;5030000;28;20044;-56
2021/11/12 22:29:33;;;;;;;3.08;2.28;;;22.90;50.70;;;;;;5029364;28;20680;-59
2021/11/12 22:32:00;;;;;;;4.75;2.22;;;22.90;50.60;;;;;;5027227;28;20124;-58
2021/11/12 22:34:25;;;;;;;3.80;2.20;;;22.90;50.50;;;;;;5031042;28;20040;-56
2021/11/12 22:36:51;;;;;;;3.50;2.30;;;22.90;50.60;;;;;;5032955;28;20032;-59
2021/11/12 22:39:18;;;;;;;3.42;2.13;;;23.00;50.60;;;;;;5032431;28;20052;-59
2021/11/12 22:41:45;;;;;;;3.72;2.03;;;23.00;50.70;;;;;;5029298;28;20040;-59
2021/11/12 22:44:11;;;;;;;3.08;1.83;;;22.90;50.50;;;;;;5032617;28;20075;-57
2021/11/12 22:46:38;;;;;;;4.00;2.20;;;23.00;50.50;;;;;;5031096;28;20043;-58
2021/11/12 22:49:05;;;;;;;3.30;1.95;;;23.00;50.50;;;;;;5033376;28;20021;-57
2021/11/12 22:51:32;;;;;;;2.78;1.98;;;22.90;50.50;;;;;;5033312;28;20036;-58
2021/11/12 22:53:58;;;;;;;3.45;2.30;;;22.90;50.50;;;;;;5036499;28;20064;-59
2021/11/12 22:56:25;;;;;;;3.17;2.08;;;23.00;50.60;;;;;;5036060;28;20100;-55
2021/11/12 22:58:50;;;;;;;2.75;1.90;;;23.00;50.50;;;;;;5034563;28;20025;-56
2021/11/12 23:01:20;;;;;;;3.00;1.85;;;23.00;50.50;;;;;;5032186;28;20721;-55
2021/11/12 23:03:46;;;;;;;4.00;1.92;;;22.90;50.40;;;;;;5034057;28;20024;-58
2021/11/12 23:06:12;;;;;;;3.92;2.00;;;23.00;50.50;;;;;;5036632;28;20040;-58